createdAt,value
2018-05-21T00:00:42.884Z,7.23
2018-05-21T00:03:11.116Z,5.10
2018-05-21T00:05:38.615Z,5.40
2018-05-21T00:08:06.072Z,8.70
2018-05-21T00:10:33.615Z,3.90
2018-05-21T00:13:01.088Z,5.30
2018-05-21T00:15:29.929Z,5.30
2018-05-21T00:17:58.751Z,5.37
2018-05-21T00:20:27.579Z,7.90
2018-05-21T00:22:56.411Z,6.40
2018-05-21T00:25:25.235Z,4.63
2018-05-21T00:27:54.041Z,4.50
2018-05-21T00:30:22.871Z,6.80
2018-05-21T00:32:51.687Z,6.30
2018-05-21T00:35:20.556Z,5.50
2018-05-21T00:37:49.377Z,5.03
2018-05-21T00:40:18.180Z,4.37
2018-05-21T00:42:47.030Z,5.33
2018-05-21T00:45:15.954Z,5.50
2018-05-21T00:47:44.851Z,4.40
2018-05-21T00:50:13.679Z,7.77
2018-05-21T00:52:42.532Z,5.53
2018-05-21T00:55:17.269Z,4.77
2018-05-21T00:57:46.169Z,7.00
2018-05-21T01:00:14.972Z,5.10
2018-05-21T01:02:43.815Z,4.50
2018-05-21T01:05:12.640Z,6.87
2018-05-21T01:07:41.475Z,5.63
2018-05-21T01:10:10.311Z,5.67
2018-05-21T01:12:39.155Z,7.70
2018-05-21T01:15:07.975Z,6.97
2018-05-21T01:17:36.840Z,6.60
2018-05-21T01:20:05.636Z,5.30
2018-05-21T01:22:34.495Z,5.23
2018-05-21T01:25:03.303Z,7.37
2018-05-21T01:27:32.113Z,7.50
2018-05-21T01:30:00.959Z,6.43
2018-05-21T01:32:29.760Z,5.67
2018-05-21T01:34:58.613Z,9.77
2018-05-21T01:37:27.424Z,5.60
2018-05-21T01:39:56.257Z,7.10
2018-05-21T01:42:25.077Z,5.80
2018-05-21T01:44:53.902Z,9.47
2018-05-21T01:47:22.728Z,6.00
2018-05-21T01:49:51.585Z,9.13
2018-05-21T01:52:20.389Z,9.67
2018-05-21T01:54:49.333Z,5.70
2018-05-21T01:57:18.132Z,5.63
2018-05-21T01:59:46.952Z,7.47
2018-05-21T02:02:15.872Z,5.87
2018-05-21T02:04:44.094Z,5.90
2018-05-21T02:07:12.931Z,6.43
2018-05-21T02:09:41.826Z,6.07
2018-05-21T02:12:10.662Z,6.97
2018-05-21T02:14:39.468Z,6.43
2018-05-21T02:17:08.381Z,5.97
2018-05-21T02:19:37.188Z,6.63
2018-05-21T02:22:06.025Z,7.73
2018-05-21T02:24:35.140Z,6.37
2018-05-21T02:27:04.359Z,6.27
2018-05-21T02:29:33.423Z,5.40
2018-05-21T02:32:02.253Z,8.07
2018-05-21T02:34:31.185Z,6.27
2018-05-21T02:37:00.050Z,5.13
2018-05-21T02:39:28.983Z,6.27
2018-05-21T02:41:57.987Z,8.40
2018-05-21T02:44:26.915Z,6.07
2018-05-21T02:46:55.807Z,6.53
2018-05-21T02:49:24.905Z,6.50
2018-05-21T02:51:54.032Z,8.33
2018-05-21T02:54:23.143Z,6.40
2018-05-21T02:56:52.300Z,5.70
2018-05-21T02:59:21.406Z,6.47
2018-05-21T03:01:50.517Z,8.50
2018-05-21T03:04:19.672Z,7.13
2018-05-21T03:06:48.597Z,6.90
2018-05-21T03:09:17.487Z,10.47
2018-05-21T03:11:46.664Z,7.57
2018-05-21T03:14:15.952Z,7.50
2018-05-21T03:16:45.091Z,8.60
2018-05-21T03:19:14.225Z,8.27
2018-05-21T03:21:43.372Z,8.07
2018-05-21T03:24:12.509Z,8.60
2018-05-21T03:26:41.747Z,7.27
2018-05-21T03:29:10.935Z,7.53
2018-05-21T03:31:40.067Z,6.23
2018-05-21T03:34:09.251Z,6.97
2018-05-21T03:36:38.400Z,9.00
2018-05-21T03:39:07.546Z,7.73
2018-05-21T03:41:36.708Z,7.33
2018-05-21T03:44:05.916Z,10.87
2018-05-21T03:46:35.055Z,7.27
2018-05-21T03:49:04.167Z,6.83
2018-05-21T03:51:33.271Z,10.97
2018-05-21T03:54:02.351Z,8.60
2018-05-21T03:56:31.195Z,7.60
2018-05-21T03:59:05.887Z,6.70
2018-05-21T04:01:40.737Z,8.83
2018-05-21T04:04:09.668Z,8.57
2018-05-21T04:06:38.567Z,7.07
2018-05-21T04:09:07.388Z,6.17
2018-05-21T04:11:36.201Z,6.47
2018-05-21T04:14:05.040Z,10.67
2018-05-21T04:16:33.900Z,6.43
2018-05-21T04:19:02.720Z,7.77
2018-05-21T04:21:31.584Z,9.37
2018-05-21T04:24:00.424Z,9.20
2018-05-21T04:26:29.241Z,8.10
2018-05-21T04:28:58.052Z,6.83
2018-05-21T04:31:26.911Z,6.67
2018-05-21T04:33:55.832Z,8.40
2018-05-21T04:36:24.691Z,9.37
2018-05-21T04:38:53.472Z,8.53
2018-05-21T04:41:22.298Z,9.73
2018-05-21T04:43:51.116Z,8.77
2018-05-21T04:46:19.950Z,7.80
2018-05-21T04:48:48.866Z,9.03
2018-05-21T04:51:17.751Z,9.57
2018-05-21T04:53:46.599Z,7.37
2018-05-21T04:56:15.428Z,9.47
2018-05-21T04:58:44.237Z,7.47
2018-05-21T05:01:13.080Z,8.43
2018-05-21T05:03:41.899Z,9.10
2018-05-21T05:06:10.716Z,10.47
2018-05-21T05:08:39.555Z,10.27
2018-05-21T05:11:08.363Z,7.73
2018-05-21T05:13:37.200Z,10.00
2018-05-21T05:16:06.012Z,9.80
2018-05-21T05:18:34.831Z,11.97
2018-05-21T05:21:03.708Z,8.90
2018-05-21T05:23:32.464Z,7.87
2018-05-21T05:26:01.279Z,9.90
2018-05-21T05:28:30.121Z,10.47
2018-05-21T05:30:58.930Z,9.67
2018-05-21T05:33:27.763Z,10.07
2018-05-21T05:35:56.769Z,11.47
2018-05-21T05:38:25.505Z,10.13
2018-05-21T05:40:54.319Z,10.43
2018-05-21T05:43:23.162Z,8.70
2018-05-21T05:45:51.974Z,10.67
2018-05-21T05:48:20.790Z,7.93
2018-05-21T05:50:49.633Z,8.30
2018-05-21T05:53:18.452Z,13.93
2018-05-21T05:55:47.272Z,8.27
2018-05-21T05:58:16.085Z,8.70
2018-05-21T06:00:44.911Z,8.27
2018-05-21T06:03:13.721Z,8.93
2018-05-21T06:05:42.645Z,7.43
2018-05-21T06:08:11.464Z,10.17
2018-05-21T06:10:40.304Z,8.73
2018-05-21T06:13:09.105Z,9.77
2018-05-21T06:15:37.940Z,9.27
2018-05-21T06:18:06.760Z,7.97
2018-05-21T06:20:35.568Z,9.40
2018-05-21T06:23:04.496Z,9.17
2018-05-21T06:25:33.305Z,10.43
2018-05-21T06:28:02.170Z,10.23
2018-05-21T06:30:30.968Z,9.27
2018-05-21T06:32:59.797Z,10.03
2018-05-21T06:35:28.609Z,9.87
2018-05-21T06:37:57.503Z,12.97
2018-05-21T06:40:26.307Z,13.27
2018-05-21T06:42:55.142Z,10.07
2018-05-21T06:45:23.945Z,9.60
2018-05-21T06:47:52.873Z,9.33
2018-05-21T06:50:21.788Z,10.40
2018-05-21T06:52:50.611Z,8.43
2018-05-21T06:55:19.457Z,11.57
2018-05-21T06:57:48.288Z,8.10
2018-05-21T07:00:17.081Z,9.10
2018-05-21T07:02:46.029Z,11.63
2018-05-21T07:05:14.837Z,7.67
2018-05-21T07:07:43.675Z,10.57
2018-05-21T07:10:12.493Z,8.53
2018-05-21T07:12:41.345Z,8.27
2018-05-21T07:15:10.167Z,8.43
2018-05-21T07:17:38.981Z,10.23
2018-05-21T07:20:07.844Z,11.13
2018-05-21T07:22:36.655Z,9.80
2018-05-21T07:25:05.506Z,10.37
2018-05-21T07:27:34.333Z,10.63
2018-05-21T07:30:03.140Z,9.17
2018-05-21T07:32:31.954Z,9.37
2018-05-21T07:35:00.887Z,9.53
2018-05-21T07:37:29.772Z,13.57
2018-05-21T07:39:58.612Z,8.20
2018-05-21T07:42:27.409Z,10.10
2018-05-21T07:44:56.302Z,9.93
2018-05-21T07:47:25.067Z,14.00
2018-05-21T07:49:53.901Z,13.37
2018-05-21T07:52:22.743Z,9.07
2018-05-21T07:54:51.614Z,9.60
2018-05-21T07:57:20.443Z,10.67
2018-05-21T07:59:49.281Z,9.67
2018-05-21T08:02:18.168Z,9.80
2018-05-21T08:04:47.029Z,10.17
2018-05-21T08:07:15.847Z,12.33
2018-05-21T08:09:44.667Z,10.67
2018-05-21T08:12:13.495Z,12.30
2018-05-21T08:14:42.420Z,10.43
2018-05-21T08:17:11.172Z,12.43
2018-05-21T08:19:39.996Z,10.50
2018-05-21T08:22:10.628Z,10.07
2018-05-21T08:24:39.605Z,11.43
2018-05-21T08:27:08.523Z,12.00
2018-05-21T08:29:37.349Z,12.07
2018-05-21T08:32:06.213Z,12.43
2018-05-21T08:34:35.128Z,9.53
2018-05-21T08:37:03.941Z,9.03
2018-05-21T08:39:32.799Z,10.87
2018-05-21T08:42:01.617Z,11.23
2018-05-21T08:44:30.609Z,10.03
2018-05-21T08:46:59.428Z,11.20
2018-05-21T08:49:28.275Z,10.50
2018-05-21T08:51:57.098Z,9.03
2018-05-21T08:54:25.935Z,8.87
2018-05-21T08:56:54.744Z,9.87
2018-05-21T08:59:23.604Z,10.93
2018-05-21T09:01:52.432Z,9.77
2018-05-21T09:04:21.242Z,9.93
2018-05-21T09:06:50.090Z,8.30
2018-05-21T09:09:17.558Z,10.47
2018-05-21T09:11:45.066Z,9.90
2018-05-21T09:14:13.912Z,11.43
2018-05-21T09:16:42.784Z,10.57
2018-05-21T09:19:11.563Z,11.40
2018-05-21T09:21:40.423Z,11.60
2018-05-21T09:24:09.525Z,9.00
2018-05-21T09:26:38.719Z,9.87
2018-05-21T09:29:07.834Z,12.33
2018-05-21T09:31:36.987Z,9.17
2018-05-21T09:34:06.100Z,11.50
2018-05-21T09:36:35.263Z,10.33
2018-05-21T09:39:05.329Z,8.73
2018-05-21T09:41:34.450Z,8.83
2018-05-21T09:44:03.585Z,8.30
2018-05-21T09:46:32.428Z,10.27
2018-05-21T09:49:01.300Z,8.10
2018-05-21T09:51:29.533Z,8.83
2018-05-21T09:53:57.016Z,8.23
2018-05-21T09:56:24.492Z,8.37
2018-05-21T09:58:52.871Z,10.07
2018-05-21T10:01:21.985Z,11.10
2018-05-21T10:03:51.210Z,11.57
2018-05-21T10:06:20.355Z,9.30
2018-05-21T10:08:49.512Z,8.77
2018-05-21T10:11:18.339Z,11.30
2018-05-21T10:13:47.188Z,13.23
2018-05-21T10:16:16.002Z,13.77
2018-05-21T10:18:45.133Z,8.63
2018-05-21T10:21:14.330Z,10.77
2018-05-21T10:23:43.469Z,11.60
2018-05-21T10:26:12.871Z,11.40
2018-05-21T10:28:41.820Z,11.67
2018-05-21T10:31:11.016Z,9.73
2018-05-21T10:33:40.189Z,10.50
2018-05-21T10:36:09.320Z,11.90
2018-05-21T10:38:38.467Z,9.23
2018-05-21T10:41:07.658Z,8.77
2018-05-21T10:43:36.825Z,8.97
2018-05-21T10:46:05.933Z,9.67
2018-05-21T10:48:35.081Z,10.43
2018-05-21T10:51:04.226Z,9.63
2018-05-21T10:53:33.037Z,9.17
2018-05-21T10:56:00.537Z,10.30
2018-05-21T10:58:28.784Z,10.27
2018-05-21T11:00:56.294Z,9.27
2018-05-21T11:03:23.778Z,10.13
2018-05-21T11:05:53.910Z,8.70
2018-05-21T11:08:23.036Z,10.97
2018-05-21T11:10:52.278Z,8.97
2018-05-21T11:13:21.023Z,8.97
2018-05-21T11:15:49.887Z,9.60
2018-05-21T11:18:18.699Z,11.03
2018-05-21T11:20:47.536Z,10.87
2018-05-21T11:23:16.474Z,9.67
2018-05-21T11:25:45.394Z,8.17
2018-05-21T11:28:14.281Z,10.57
2018-05-21T11:30:43.092Z,11.30
2018-05-21T11:33:11.952Z,11.17
2018-05-21T11:35:40.792Z,9.43
2018-05-21T11:38:09.624Z,7.70
2018-05-21T11:40:38.452Z,8.00
2018-05-21T11:43:07.259Z,8.30
2018-05-21T11:45:36.091Z,10.83
2018-05-21T11:48:04.945Z,9.20
2018-05-21T11:50:33.841Z,9.97
2018-05-21T11:53:03.210Z,9.53
2018-05-21T11:55:32.042Z,8.23
2018-05-21T11:58:00.864Z,6.97
2018-05-21T12:00:29.132Z,8.17
2018-05-21T12:02:56.627Z,7.03
2018-05-21T12:05:24.140Z,7.07
2018-05-21T12:07:51.608Z,9.63
2018-05-21T12:10:19.109Z,6.27
2018-05-21T12:12:46.638Z,6.10
2018-05-21T12:15:14.881Z,6.40
2018-05-21T12:17:42.370Z,9.90
2018-05-21T12:20:10.589Z,5.83
2018-05-21T12:22:38.093Z,7.23
2018-05-21T12:25:05.559Z,5.97
2018-05-21T12:27:33.838Z,5.53
2018-05-21T12:30:03.039Z,5.00
2018-05-21T12:32:31.881Z,6.47
2018-05-21T12:34:59.361Z,6.47
2018-05-21T12:37:26.866Z,5.57
2018-05-21T12:39:54.330Z,11.00
2018-05-21T12:42:22.829Z,7.83
2018-05-21T12:44:50.307Z,6.57
2018-05-21T12:47:17.788Z,6.80
2018-05-21T12:49:46.015Z,7.37
2018-05-21T12:52:13.476Z,5.90
2018-05-21T12:54:40.999Z,7.63
2018-05-21T12:57:10.069Z,4.73
2018-05-21T12:59:38.957Z,6.43
2018-05-21T13:02:07.795Z,6.73
2018-05-21T13:04:36.610Z,7.60
2018-05-21T13:07:05.432Z,7.03
2018-05-21T13:09:34.275Z,7.23
2018-05-21T13:12:03.147Z,5.83
2018-05-21T13:14:32.012Z,6.93
2018-05-21T13:17:00.823Z,6.90
2018-05-21T13:19:29.651Z,6.17
2018-05-21T13:21:58.467Z,5.67
2018-05-21T13:24:27.314Z,7.47
2018-05-21T13:26:56.444Z,9.63
2018-05-21T13:29:25.565Z,5.37
2018-05-21T13:31:54.709Z,4.80
2018-05-21T13:34:23.538Z,4.80
2018-05-21T13:36:51.092Z,5.13
2018-05-21T13:39:20.216Z,5.20
2018-05-21T13:41:49.419Z,4.63
2018-05-21T13:44:18.309Z,3.67
2018-05-21T13:46:47.441Z,4.57
2018-05-21T13:49:16.257Z,5.07
2018-05-21T13:51:45.133Z,4.37
2018-05-21T13:54:14.236Z,5.40
2018-05-21T13:56:43.074Z,5.57
2018-05-21T13:59:11.900Z,4.17
2018-05-21T14:01:40.747Z,3.60
2018-05-21T14:04:09.554Z,4.97
2018-05-21T14:06:38.379Z,3.50
2018-05-21T14:09:07.224Z,4.03
2018-05-21T14:11:36.069Z,4.40
2018-05-21T14:14:04.924Z,5.13
2018-05-21T14:16:34.037Z,3.87
2018-05-21T14:19:03.193Z,3.03
2018-05-21T14:21:32.338Z,11.90
2018-05-21T14:24:01.451Z,5.80
2018-05-21T14:26:30.552Z,2.97
2018-05-21T14:28:59.739Z,5.40
2018-05-21T14:31:28.914Z,2.50
2018-05-21T14:33:57.982Z,10.27
2018-05-21T14:36:27.097Z,3.20
2018-05-21T14:38:56.231Z,4.10
2018-05-21T14:41:25.347Z,4.20
2018-05-21T14:43:54.500Z,5.10
2018-05-21T14:46:23.738Z,3.10
2018-05-21T14:48:52.946Z,5.57
2018-05-21T14:51:22.073Z,3.23
2018-05-21T14:53:51.193Z,5.27
2018-05-21T14:56:20.339Z,2.87
2018-05-21T14:58:49.455Z,3.00
2018-05-21T15:01:18.596Z,3.07
2018-05-21T15:03:47.730Z,3.93
2018-05-21T15:06:16.846Z,2.70
2018-05-21T15:08:45.980Z,2.60
2018-05-21T15:11:15.209Z,2.93
2018-05-21T15:13:44.350Z,2.80
2018-05-21T15:16:13.522Z,3.43
2018-05-21T15:18:42.599Z,2.23
2018-05-21T15:21:11.713Z,3.83
2018-05-21T15:23:40.905Z,3.43
2018-05-21T15:26:10.091Z,4.73
2018-05-21T15:28:39.264Z,2.90
2018-05-21T15:31:08.377Z,2.40
2018-05-21T15:33:37.582Z,7.13
2018-05-21T15:36:06.717Z,11.37
2018-05-21T15:38:35.833Z,3.93
2018-05-21T15:41:04.982Z,4.10
2018-05-21T15:43:34.157Z,2.60
2018-05-21T15:46:03.313Z,2.37
2018-05-21T15:48:32.546Z,2.60
2018-05-21T15:51:01.594Z,2.50
2018-05-21T15:53:30.823Z,2.60
2018-05-21T15:55:59.962Z,2.30
2018-05-21T15:58:29.221Z,3.63
2018-05-21T16:00:58.348Z,11.37
2018-05-21T16:03:27.472Z,4.90
2018-05-21T16:05:56.633Z,8.80
2018-05-21T16:08:25.755Z,3.60
2018-05-21T16:10:54.897Z,3.13
2018-05-21T16:13:23.996Z,5.47
2018-05-21T16:15:53.193Z,5.63
2018-05-21T16:18:22.290Z,5.67
2018-05-21T16:20:51.428Z,6.07
2018-05-21T16:23:20.573Z,7.57
2018-05-21T16:25:49.740Z,4.50
2018-05-21T16:28:18.900Z,15.00
2018-05-21T16:30:48.008Z,7.47
2018-05-21T16:33:17.239Z,4.90
2018-05-21T16:35:46.361Z,4.20
2018-05-21T16:38:15.530Z,4.87
2018-05-21T16:40:44.654Z,3.50
2018-05-21T16:43:13.797Z,2.90
2018-05-21T16:45:42.912Z,4.07
2018-05-21T16:48:12.048Z,4.27
2018-05-21T16:50:41.189Z,3.20
2018-05-21T16:53:10.367Z,9.90
2018-05-21T16:55:39.467Z,4.93
2018-05-21T16:58:08.698Z,4.10
2018-05-21T17:00:37.874Z,6.33
2018-05-21T17:03:07.034Z,3.73
2018-05-21T17:05:36.152Z,4.20
2018-05-21T17:08:05.266Z,3.47
2018-05-21T17:10:34.543Z,6.13
2018-05-21T17:13:03.658Z,4.37
2018-05-21T17:15:33.064Z,4.57
2018-05-21T17:18:02.225Z,3.00
2018-05-21T17:20:31.323Z,4.43
2018-05-21T17:23:00.514Z,3.30
2018-05-21T17:25:29.639Z,3.43
2018-05-21T17:27:58.774Z,4.50
2018-05-21T17:30:27.930Z,7.13
2018-05-21T17:32:57.172Z,5.53
2018-05-21T17:35:26.381Z,4.40
2018-05-21T17:37:55.451Z,7.50
2018-05-21T17:40:24.596Z,3.80
2018-05-21T17:42:53.773Z,4.03
2018-05-21T17:45:22.906Z,6.13
2018-05-21T17:47:52.039Z,4.00
2018-05-21T17:50:21.208Z,5.97
2018-05-21T17:52:50.361Z,3.27
2018-05-21T17:55:19.592Z,2.97
2018-05-21T17:57:48.868Z,2.50
2018-05-21T18:00:17.659Z,3.53
2018-05-21T18:02:46.774Z,4.67
2018-05-21T18:05:15.934Z,2.80
2018-05-21T18:07:45.082Z,6.93
2018-05-21T18:10:14.234Z,3.97
2018-05-21T18:12:43.366Z,2.50
2018-05-21T18:15:12.554Z,2.40
2018-05-21T18:17:42.049Z,2.63
2018-05-21T18:20:12.268Z,5.30
2018-05-21T18:22:41.391Z,2.47
2018-05-21T18:25:10.577Z,2.60
2018-05-21T18:27:39.704Z,4.23
2018-05-21T18:30:08.853Z,2.53
2018-05-21T18:32:37.985Z,3.50
2018-05-21T18:35:07.110Z,2.57
2018-05-21T18:37:36.288Z,4.27
2018-05-21T18:40:05.456Z,2.90
2018-05-21T18:42:34.677Z,2.40
2018-05-21T18:45:03.807Z,2.43
2018-05-21T18:47:32.699Z,5.37
2018-05-21T18:50:01.831Z,4.03
2018-05-21T18:52:30.707Z,4.13
2018-05-21T18:54:59.849Z,2.13
2018-05-21T18:57:28.992Z,2.83
2018-05-21T18:59:57.844Z,3.70
2018-05-21T19:02:27.019Z,3.90
2018-05-21T19:04:56.026Z,2.60
2018-05-21T19:07:24.890Z,11.70
2018-05-21T19:09:54.052Z,4.50
2018-05-21T19:12:23.265Z,3.00
2018-05-21T19:14:52.433Z,3.30
2018-05-21T19:17:21.556Z,5.40
2018-05-21T19:19:50.694Z,3.17
2018-05-21T19:22:19.523Z,2.80
2018-05-21T19:24:48.407Z,3.47
2018-05-21T19:27:17.254Z,3.57
2018-05-21T19:29:46.136Z,5.73
2018-05-21T19:32:15.030Z,4.13
2018-05-21T19:34:43.898Z,3.37
2018-05-21T19:37:12.722Z,3.27
2018-05-21T19:39:41.630Z,3.00
2018-05-21T19:42:10.510Z,3.40
2018-05-21T19:44:39.378Z,3.97
2018-05-21T19:47:08.256Z,3.33
2018-05-21T19:49:37.098Z,4.53
2018-05-21T19:52:05.916Z,3.50
2018-05-21T19:54:34.859Z,3.20
2018-05-21T19:57:03.678Z,3.57
2018-05-21T19:59:32.548Z,5.80
2018-05-21T20:02:01.460Z,7.33
2018-05-21T20:04:30.378Z,2.80
2018-05-21T20:06:59.249Z,3.30
2018-05-21T20:09:28.083Z,8.30
2018-05-21T20:11:56.915Z,3.67
2018-05-21T20:14:25.787Z,3.13
2018-05-21T20:16:54.668Z,2.40
2018-05-21T20:19:23.612Z,2.53
2018-05-21T20:21:52.383Z,2.40
2018-05-21T20:24:21.221Z,4.77
2018-05-21T20:26:50.116Z,3.73
2018-05-21T20:29:18.974Z,2.30
2018-05-21T20:31:47.813Z,2.70
2018-05-21T20:34:16.629Z,4.37
2018-05-21T20:36:45.489Z,3.03
2018-05-21T20:39:14.313Z,2.70
2018-05-21T20:41:43.155Z,4.10
2018-05-21T20:44:11.977Z,3.07
2018-05-21T20:46:40.820Z,2.30
2018-05-21T20:49:09.647Z,2.87
2018-05-21T20:51:38.490Z,2.53
2018-05-21T20:54:07.317Z,4.37
2018-05-21T20:56:36.228Z,3.53
2018-05-21T20:59:05.110Z,2.70
2018-05-21T21:01:33.956Z,3.53
2018-05-21T21:04:02.784Z,2.63
2018-05-21T21:06:31.611Z,4.73
2018-05-21T21:09:00.487Z,5.10
2018-05-21T21:11:29.360Z,3.10
2018-05-21T21:13:58.493Z,3.30
2018-05-21T21:16:27.628Z,4.73
2018-05-21T21:18:56.820Z,4.73
2018-05-21T21:21:25.630Z,9.37
2018-05-21T21:23:54.777Z,4.20
2018-05-21T21:26:23.902Z,3.30
2018-05-21T21:28:52.839Z,4.53
2018-05-21T21:31:21.684Z,3.00
2018-05-21T21:33:50.832Z,3.20
2018-05-21T21:36:19.949Z,2.47
2018-05-21T21:38:48.824Z,4.37
2018-05-21T21:41:17.936Z,2.80
2018-05-21T21:43:47.090Z,4.53
2018-05-21T21:46:16.194Z,6.67
2018-05-21T21:48:45.416Z,2.90
2018-05-21T21:51:14.537Z,3.30
2018-05-21T21:53:43.702Z,3.50
2018-05-21T21:56:12.844Z,3.23
2018-05-21T21:58:41.980Z,3.27
2018-05-21T22:01:10.993Z,3.00
2018-05-21T22:03:40.079Z,8.87
2018-05-21T22:06:09.288Z,5.83
2018-05-21T22:08:38.409Z,3.53
2018-05-21T22:11:07.575Z,3.27
2018-05-21T22:13:36.683Z,3.23
2018-05-21T22:16:05.816Z,5.17
2018-05-21T22:18:34.772Z,5.00
2018-05-21T22:21:03.916Z,6.93
2018-05-21T22:23:33.053Z,3.73
2018-05-21T22:26:02.224Z,7.40
2018-05-21T22:28:31.401Z,6.13
2018-05-21T22:31:00.445Z,5.27
2018-05-21T22:33:29.284Z,3.17
2018-05-21T22:35:58.396Z,3.60
2018-05-21T22:38:27.569Z,6.00
2018-05-21T22:40:56.672Z,4.33
2018-05-21T22:43:25.807Z,4.67
2018-05-21T22:45:54.934Z,4.57
2018-05-21T22:48:24.068Z,3.17
2018-05-21T22:50:53.184Z,3.33
2018-05-21T22:53:22.022Z,4.43
2018-05-21T22:55:51.126Z,7.33
2018-05-21T22:58:20.096Z,3.90
2018-05-21T23:00:49.017Z,3.83
2018-05-21T23:03:17.918Z,3.47
2018-05-21T23:05:46.788Z,3.60
2018-05-21T23:08:15.684Z,3.77
2018-05-21T23:10:44.517Z,5.23
2018-05-21T23:13:13.653Z,5.40
2018-05-21T23:15:42.756Z,4.37
2018-05-21T23:18:11.927Z,4.00
2018-05-21T23:20:41.039Z,5.33
2018-05-21T23:23:10.166Z,4.70
2018-05-21T23:25:39.286Z,6.67
2018-05-21T23:28:08.410Z,5.67
2018-05-21T23:30:37.532Z,5.23
2018-05-21T23:33:06.684Z,6.00
2018-05-21T23:35:35.810Z,4.53
2018-05-21T23:38:04.953Z,5.80
2018-05-21T23:40:34.068Z,4.73
2018-05-21T23:43:03.204Z,4.63
2018-05-21T23:45:32.317Z,3.80
2018-05-21T23:48:01.196Z,5.63
2018-05-21T23:50:30.076Z,4.57
2018-05-21T23:52:58.971Z,5.60
2018-05-21T23:55:27.808Z,3.83
2018-05-21T23:57:56.604Z,4.93
